Latest Weather Observations for Omeo

IDV60801

Issued at 5:02 pm EDT Sunday 18 November 2018 (issued every 10 minutes, with the page automatically refreshed every 10 minutes)

About weather observations | Map of weather stations | Latest weather observations for VIC | Other Formats
Station Details ID: 083090 Name: OMEO Lat: -37.10 Lon: 147.60 Height: 689.8 m
Data from the previous 72 hours. | See also: Recent months at Omeo
Date/Time
EDT
Temp
°C
App
Temp
°C
Dew
Point
°C
Rel
Hum
%
Delta-T
°C
Wind Press
QNH
hPa
Press
MSL
hPa
Rain since
9am
mm
Dir  Spd
km/h
Gust
km/h
Spd
kts
Gust
kts
18/05:00pm 24.3 20.2 4.6 28 10.1 SE 15 24 8 13 1019.4 1017.8 0.0
18/04:30pm 24.6 20.8 5.9 30 9.9 SE 15 28 8 15 1019.5 1017.9 0.0
18/04:00pm 24.4 21.1 4.7 28 10.2 SE 11 19 6 10 1019.9 1018.2 0.0
18/03:30pm 24.5 21.7 5.3 29 10.0 SE 9 15 5 8 1020.3 1018.7 0.0
18/03:00pm 23.1 20.3 5.1 31 9.3 E 9 15 5 8 1020.7 1019.1 0.0
18/02:30pm 23.5 19.5 2.9 26 10.2 SE 13 24 7 13 1021.2 1019.5 0.0
18/02:00pm 23.4 19.9 5.3 31 9.4 ESE 13 22 7 12 1021.6 1020.0 0.0
18/01:30pm 22.1 19.6 3.7 30 9.2 SE 6 11 3 6 1021.9 1020.3 0.0
18/01:00pm 22.1 18.4 0.0 23 10.3 ESE 9 17 5 9 1022.2 1020.6 0.0
18/12:30pm 19.9 17.3 3.2 33 8.1 SSW 6 13 3 7 1022.5 1020.9 0.0
18/12:00pm 20.6 17.9 3.8 33 8.3 SE 7 13 4 7 1022.9 1021.3 0.0
18/11:30am 19.0 16.2 3.2 35 7.7 SSE 7 13 4 7 1023.3 1021.7 0.0
18/11:00am 18.8 16.3 4.6 39 7.0 E 7 13 4 7 1023.6 1022.0 0.0
18/10:30am 17.1 14.3 3.4 40 6.6 ENE 7 11 4 6 1023.8 1022.2 0.0
18/10:00am 16.6 14.1 3.7 42 6.2 W 6 9 3 5 1023.9 1022.3 0.0
18/09:30am 14.8 12.4 5.1 52 4.7 N 7 13 4 7 1023.9 1022.3 0.0
18/09:00am 13.9 13.0 7.7 66 3.2 N 2 7 1 4 1024.0 1022.5 0.2
18/08:30am 11.0 10.5 7.9 81 1.6 CALM 0 7 0 4 1024.0 1022.5 0.2
18/08:00am 8.9 8.2 8.5 97 0.2 NE 2 7 1 4 1024.0 1022.5 0.2
18/07:30am 6.7 4.8 6.6 99 0.0 ESE 6 7 3 4 1024.0 1022.5 0.2
18/07:00am 4.5 3.3 4.4 99 0.0 CALM 0 0 0 0 1024.0 1022.5 0.2
18/06:30am 3.3 1.8 3.0 98 0.1 CALM 0 0 0 0 1023.9 1022.3 0.2
18/06:00am 3.4 1.1 3.0 97 0.2 SSE 4 6 2 3 1023.6 1022.0 0.2
18/05:30am 3.4 1.9 3.0 97 0.2 CALM 0 0 0 0 1023.4 1021.8 0.2
18/05:00am 3.9 2.5 3.3 96 0.3 CALM 0 0 0 0 1023.3 1021.7 0.2
18/04:30am 4.5 3.2 3.9 96 0.3 CALM 0 2 0 1 1023.3 1021.7 0.2
18/04:00am 5.0 3.7 4.3 95 0.3 CALM 0 0 0 0 1023.4 1021.8 0.2
18/03:30am 5.4 4.2 4.7 95 0.3 CALM 0 0 0 0 1023.5 1021.9 0.2
18/03:00am 6.0 4.1 5.1 94 0.4 SSE 4 9 2 5 1023.7 1022.1 0.2
18/02:30am 6.6 4.4 5.4 92 0.6 SSE 6 9 3 5 1023.8 1022.2 0.2
18/02:00am 7.8 5.7 6.7 93 0.5 SSW 7 9 4 5 1024.0 1022.5 0.2
18/01:30am 8.2 6.4 7.0 92 0.6 S 6 11 3 6 1024.4 1022.8 0.2
18/01:00am 8.2 6.3 6.7 90 0.7 SSE 6 9 3 5 1024.6 1023.0 0.2
18/12:30am 8.9 7.1 7.2 89 0.8 SSE 6 9 3 5 1024.8 1023.2 0.2
18/12:00am 9.7 7.8 7.5 86 1.1 SSE 7 11 4 6 1024.9 1023.3 0.2
 
Date/Time
EDT
Temp
°C
App
Temp
°C
Dew
Point
°C
Rel
Hum
%
Delta-T
°C
Wind Press
QNH
hPa
Press
MSL
hPa
Rain since
9am
mm
Dir  Spd
km/h
Gust
km/h
Spd
kts
Gust
kts
17/11:30pm 10.6 8.8 7.8 83 1.4 SSE 7 11 4 6 1025.0 1023.4 0.2
17/11:00pm 11.2 9.1 8.1 81 1.6 SE 9 13 5 7 1025.0 1023.4 0.2
17/10:30pm 11.3 10.1 8.2 81 1.6 SSE 4 9 2 5 1025.1 1023.5 0.2
17/10:00pm 11.2 9.1 8.1 81 1.6 S 9 13 5 7 1024.9 1023.3 0.2
17/09:30pm 11.0 8.4 7.7 80 1.7 S 11 17 6 9 1024.8 1023.2 0.2
17/09:00pm 11.4 8.8 7.7 78 1.9 S 11 22 6 12 1024.4 1022.8 0.2
17/08:30pm 11.8 9.6 7.7 76 2.1 SSE 9 17 5 9 1024.0 1022.5 0.2
17/08:00pm 12.7 8.9 7.6 71 2.6 SE 17 28 9 15 1023.7 1022.1 0.2
17/07:30pm 13.7 9.4 7.7 67 3.1 SE 20 32 11 17 1023.4 1021.8 0.2
17/07:00pm 14.9 11.0 7.0 59 4.0 SE 17 30 9 16 1023.0 1021.4 0.2
17/06:30pm 16.7 12.2 6.8 52 5.1 SE 20 30 11 16 1022.6 1021.0 0.2
17/06:00pm 18.0 13.8 5.9 45 6.1 SE 17 26 9 14 1022.4 1020.8 0.2
17/05:30pm 18.4 14.3 4.6 40 6.8 SE 15 24 8 13 1022.4 1020.8 0.2
17/05:00pm 19.0 14.8 4.0 37 7.4 SE 15 26 8 14 1022.3 1020.7 0.2
17/04:30pm 19.0 14.8 3.6 36 7.5 SE 15 24 8 13 1022.3 1020.7 0.2
17/04:00pm 19.1 15.0 4.1 37 7.4 SE 15 30 8 16 1022.4 1020.8 0.2
17/03:30pm 18.8 14.6 3.8 37 7.3 SE 15 26 8 14 1022.4 1020.8 0.2
17/03:00pm 18.2 14.6 5.1 42 6.5 SE 13 24 7 13 1022.6 1021.0 0.2
17/02:30pm 17.8 13.6 4.0 40 6.7 SSE 15 20 8 11 1022.9 1021.3 0.2
17/02:00pm 17.7 13.3 5.0 43 6.3 SSE 17 28 9 15 1023.1 1021.5 0.2
17/01:30pm 17.3 13.7 4.9 44 6.1 SSE 13 30 7 16 1023.2 1021.6 0.2
17/01:00pm 16.6 12.1 4.3 44 6.0 SSE 17 30 9 16 1023.4 1021.8 0.2
17/12:30pm 15.8 12.4 5.7 51 5.0 SE 13 24 7 13 1023.8 1022.2 0.2
17/12:00pm 14.4 10.6 6.0 57 4.2 SE 15 20 8 11 1024.0 1022.5 0.2
17/11:30am 13.4 10.1 6.5 63 3.4 SE 13 20 7 11 1024.1 1022.6 0.2
17/11:00am 12.8 9.6 6.8 67 3.0 SE 13 17 7 9 1024.1 1022.6 0.2
17/10:30am 13.5 10.8 7.5 67 3.1 SE 11 17 6 9 1024.0 1022.5 0.2
17/10:00am 13.3 9.4 6.9 65 3.2 SSE 17 26 9 14 1023.8 1022.2 0.0
17/09:30am 13.2 9.5 8.1 71 2.6 SSE 17 26 9 14 1023.5 1021.9 0.0
17/09:00am 11.0 7.8 6.9 76 2.0 SE 13 22 7 12 1023.4 1021.8 0.0
17/08:30am 10.1 7.4 7.3 83 1.4 S 11 17 6 9 1023.2 1021.6 0.0
17/08:00am 9.2 6.4 6.8 85 1.2 SSE 11 17 6 9 1022.8 1021.1 0.0
17/07:30am 8.8 6.3 6.6 86 1.1 SSE 9 15 5 8 1022.5 1020.9 0.0
17/07:00am 8.5 4.8 6.5 87 1.0 SSW 15 24 8 13 1022.3 1020.7 0.0
17/06:30am 8.4 5.8 6.2 86 1.0 SSE 9 13 5 7 1022.1 1020.5 0.0
17/06:00am 8.5 5.5 6.1 85 1.1 S 11 20 6 11 1021.6 1020.0 0.0
17/05:30am 8.5 6.1 6.8 89 0.8 S 9 19 5 10 1021.2 1019.5 0.0
17/05:00am 9.2 6.8 7.2 87 1.0 SSE 9 20 5 11 1020.9 1019.3 0.0
17/04:30am 10.5 7.6 8.3 86 1.1 SE 13 19 7 10 1020.6 1019.0 0.0
17/04:00am 10.7 8.9 7.9 83 1.4 SE 7 13 4 7 1020.5 1018.9 0.0
17/03:30am 10.9 9.6 7.8 81 1.6 SSE 4 9 2 5 1020.5 1018.9 0.0
17/03:00am 11.1 8.9 7.8 80 1.7 SSE 9 13 5 7 1020.5 1018.9 0.0
17/02:30am 11.2 9.3 7.7 79 1.8 SSE 7 13 4 7 1020.6 1019.0 0.0
17/02:00am 11.3 10.0 7.6 78 1.9 SSE 4 9 2 5 1020.9 1019.3 0.0
17/01:30am 11.5 9.6 7.6 77 2.0 SSE 7 13 4 7 1021.2 1019.5 0.0
17/01:00am 11.5 8.8 7.4 76 2.0 SE 11 20 6 11 1021.3 1019.6 0.0
17/12:30am 11.7 8.6 7.4 75 2.2 SE 13 20 7 11 1021.5 1019.8 0.0
17/12:00am 11.8 9.1 7.5 75 2.2 SSE 11 20 6 11 1021.6 1020.0 0.0
 
Date/Time
EDT
Temp
°C
App
Temp
°C
Dew
Point
°C
Rel
Hum
%
Delta-T
°C
Wind Press
QNH
hPa
Press
MSL
hPa
Rain since
9am
mm
Dir  Spd
km/h
Gust
km/h
Spd
kts
Gust
kts
16/11:30pm 12.2 9.5 7.5 73 2.4 SSE 11 24 6 13 1021.5 1019.8 0.0
16/11:00pm 12.3 8.9 7.6 73 2.4 SE 15 24 8 13 1021.3 1019.6 0.0
16/10:30pm 12.5 9.0 7.4 71 2.6 SE 15 22 8 12 1021.0 1019.4 0.0
16/10:00pm 12.9 9.9 7.8 71 2.6 SE 13 20 7 11 1020.9 1019.3 0.0
16/09:30pm 13.2 9.8 7.6 69 2.8 SE 15 20 8 11 1020.5 1018.9 0.0
16/09:00pm 13.5 10.6 8.1 70 2.8 SE 13 20 7 11 1020.2 1018.5 0.0
16/08:30pm 13.9 9.9 8.3 69 2.9 SE 19 28 10 15 1019.9 1018.2 0.0
16/08:00pm 14.0 10.1 8.6 70 2.8 SE 19 30 10 16 1019.5 1017.9 0.0
16/07:30pm 14.3 10.4 8.7 69 2.9 SE 19 28 10 15 1019.1 1017.5 0.0
16/07:00pm 14.8 11.0 9.2 69 3.0 SSE 19 30 10 16 1018.8 1017.1 0.0
16/06:30pm 15.5 10.4 9.2 66 3.4 SE 26 37 14 20 1018.2 1016.5 0.0
16/06:00pm 16.7 11.9 8.7 59 4.2 SE 24 37 13 20 1017.5 1015.8 0.0
16/05:30pm 18.0 13.4 8.3 53 5.2 SE 22 35 12 19 1017.2 1015.5 0.0
16/05:00pm 19.3 15.2 8.0 48 6.0 SSE 19 28 10 15 1017.0 1015.3 0.0
16/04:30pm 21.3 19.0 7.5 41 7.4 ENE 9 19 5 10 1016.9 1015.2 0.0
16/04:00pm 21.0 17.3 6.5 39 7.6 NNE 15 24 8 13 1016.8 1015.1 0.0
16/03:30pm 21.0 17.0 6.5 39 7.6 N 17 28 9 15 1017.0 1015.3 0.0
16/03:00pm 21.6 18.1 7.1 39 7.7 NNE 15 24 8 13 1017.2 1015.5 0.0
16/02:30pm 21.6 18.1 7.4 40 7.6 ENE 15 24 8 13 1017.5 1015.8 0.0
16/02:00pm 20.5 17.1 7.5 43 6.9 NNE 15 26 8 14 1017.7 1016.1 0.0
16/01:30pm 20.7 17.2 7.0 41 7.2 NNE 15 24 8 13 1018.1 1016.4 0.0
16/01:00pm 20.7 17.7 7.7 43 6.9 NNE 13 28 7 15 1018.4 1016.7 0.0
16/12:30pm 20.1 17.1 7.8 45 6.6 NNE 13 20 7 11 1018.9 1017.2 0.0
16/12:00pm 20.1 17.6 8.1 46 6.4 NE 11 24 6 13 1019.3 1017.7 0.0
16/11:30am 18.6 15.7 8.0 50 5.6 NNE 13 22 7 12 1019.8 1018.1 0.0
16/11:00am 17.6 14.5 7.1 50 5.4 N 13 19 7 10 1020.1 1018.4 0.0
16/10:30am 15.6 12.9 8.8 64 3.6 N 13 19 7 10 1020.4 1018.8 0.0
16/10:00am 14.0 10.3 8.0 67 3.1 N 17 24 9 13 1020.5 1018.9 0.0
16/09:30am 12.0 7.5 6.3 68 2.8 N 19 24 10 13 1020.9 1019.3 0.0
16/09:00am 10.4 6.1 5.4 71 2.4 N 17 24 9 13 1020.7 1019.1 0.0
16/08:30am 9.4 6.4 5.8 78 1.7 N 11 19 6 10 1020.9 1019.3 0.0
16/08:00am 6.8 4.0 5.3 90 0.7 NNW 9 13 5 7 1021.2 1019.5 0.0
16/07:30am 5.3 2.4 4.9 97 0.2 N 9 13 5 7 1021.2 1019.5 0.0
16/07:00am 3.3 1.5 3.2 99 0.0 SW 2 7 1 4 1021.0 1019.4 0.0
16/06:30am 2.0 0.3 1.7 98 0.1 CALM 0 0 0 0 1020.9 1019.3 0.0
16/06:00am 1.8 0.0 1.4 97 0.2 CALM 0 0 0 0 1021.3 1019.6 0.0
16/05:30am 2.4 0.7 2.0 97 0.2 CALM 0 0 0 0 1021.4 1019.7 0.0
16/05:00am 2.4 0.7 1.8 96 0.2 CALM 0 6 0 3 1021.5 1019.8 0.0
16/04:30am 2.7 1.0 2.1 96 0.2 CALM 0 7 0 4 1021.7 1020.1 0.0
16/04:00am 3.2 1.3 2.6 96 0.2 S 2 7 1 4 1021.8 1020.2 0.0
16/03:30am 3.4 1.5 2.8 96 0.3 SSE 2 7 1 4 1022.1 1020.5 0.0
16/03:00am 3.5 1.2 2.8 95 0.3 S 4 7 2 4 1022.5 1020.9 0.0
16/02:30am 3.6 1.7 2.7 94 0.4 SSE 2 7 1 4 1023.1 1021.5 0.0
16/02:00am 4.6 2.8 3.6 93 0.4 SSW 2 7 1 4 1023.1 1021.5 0.0
16/01:30am 5.1 2.5 4.2 94 0.4 S 7 11 4 6 1023.4 1021.8 0.0
16/01:00am 5.0 2.3 3.8 92 0.5 SSE 7 11 4 6 1023.8 1022.2 0.0
16/12:30am 5.6 3.2 4.2 91 0.6 S 6 9 3 5 1024.3 1022.7 0.0
16/12:00am 6.1 3.6 4.6 90 0.7 S 7 9 4 5 1024.4 1022.8 0.0
 
Date/Time
EDT
Temp
°C
App
Temp
°C
Dew
Point
°C
Rel
Hum
%
Delta-T
°C
Wind Press
QNH
hPa
Press
MSL
hPa
Rain since
9am
mm
Dir  Spd
km/h
Gust
km/h
Spd
kts
Gust
kts
15/11:30pm 6.3 4.3 4.5 88 0.8 SSE 4 7 2 4 1024.6 1023.0 0.0
15/11:00pm 7.1 4.8 4.8 85 1.0 S 6 11 3 6 1024.7 1023.1 0.0
15/10:30pm 8.0 4.4 4.9 81 1.4 SE 13 19 7 10 1024.7 1023.1 0.0
15/10:00pm 8.6 5.4 5.0 78 1.7 SE 11 17 6 9 1024.6 1023.0 0.0
15/09:30pm 9.4 5.8 5.2 75 2.0 SE 13 20 7 11 1024.5 1022.9 0.0
15/09:00pm 9.7 5.4 5.1 73 2.2 SE 17 26 9 14 1024.3 1022.7 0.0
15/08:30pm 10.1 5.2 4.9 70 2.4 SE 20 33 11 18 1023.8 1022.2 0.0
15/08:00pm 10.5 6.2 5.1 69 2.5 SE 17 30 9 16 1023.6 1022.0 0.0
15/07:30pm 10.9 6.7 5.9 71 2.4 SE 17 26 9 14 1023.4 1021.8 0.0
15/07:00pm 11.2 7.0 5.9 70 2.6 SE 17 24 9 13 1023.4 1021.8 0.0
15/06:30pm 11.7 7.6 6.4 70 2.6 SE 17 28 9 15 1022.9 1021.3 0.0
15/06:00pm 11.7 8.0 6.2 69 2.7 SE 15 24 8 13 1022.9 1021.3 0.0
15/05:30pm 12.2 7.8 6.7 69 2.7 SE 19 30 10 16 1022.4 1020.8 0.0

Other Formats:

Comma delimited format used in spreadsheet applications
http://www.bom.gov.au/fwo/IDV60801/IDV60801.94908.axf

JavaScript Object Notation format (JSON) in row-major order
http://www.bom.gov.au/fwo/IDV60801/IDV60801.94908.json